Issaquah, WA

9:22 PM PST on December 17, 2014 (GMT -0800)
KnK's Place Near Paragliding LZ | Change Station
CLOSE
Current Station
Personal Weather Station
Location: Issaquah, WA
Elevation: 279 ft
Nearby Weather Stations

Elev 279 ft 47.50 °N, 122.02 °W | Updated 20 minutes ago

Overcast
Overcast
43.3 °F
Feels Like 43 °F
N
0.0
Wind Variable Wind from North
Gusts 0.0 mph

Today
High -- | Low -- °F
--% Chance of Precip.
Yesterday
High -- | Low -- °F
Precip. -- in
7:50 AM 4:17 PM
Waning Crescent, 17% visible
Pressure 29.93 in
Visibility 6.0 miles
Clouds Few 3000 ft
Scattered Clouds 3800 ft
Overcast 4700 ft
Windchill 43 °F
Dew Point 42 °F
Humidity 95%
Rainfall 0.05 in
Snow Depth Not available.
UV 0 out of 12
Pollen 1.10 out of 12
Air Quality Not available.
Flu Activity Not available.
METAR KRNT 180453Z AUTO 00000KT 6SM -RA BR FEW030 SCT038 OVC047 08/07 A2991 RMK AO2 SLP135 P0000 T00780072

More Conditions Fewer Conditions

Pressure 29.93 in
Visibility 6.0 miles
Clouds Few 3000 ft
Scattered Clouds 3800 ft
Overcast 4700 ft
Windchill 43 °F
Dew Point 42 °F
Humidity 95%
Rainfall 0.05 in
Snow Depth Not available.
UV 0 out of 12
Pollen 1.10 out of 12
Air Quality Not available.
Flu Activity Not available.
METAR KRNT 180453Z AUTO 00000KT 6SM -RA BR FEW030 SCT038 OVC047 08/07 A2991 RMK AO2 SLP135 P0000 T00780072

More Conditions Fewer Conditions

10-Day Weather Forecast

Almanac

Astronomy

Dec. 17, 2014 Rise Set
Actual Time
Civil Twilight
Nautical Twilight
Astronomical Twilight
Moon
Length of Visible Light
Length of Day
Tomorrow will be .
, % of the Moon is Illuminated

Today's Extremes

State Highs State Lows

Community

WunderPhotos

Upload Photos

1,778,894 photos uploaded!

WunderBlogs® & News

Nearby

Air Quality

  Air Quality AQ Index Pollutant
Not available.

Snow Depth

Station Depth Elevation

Earthquake Activity

City Distance Mag. Time & Date
Minimum magnitude displayed is 2.5.

Coastal Water Temperatures

Place Temperature

Nearby Weather Stations